sensor_id;sensor_type;location;lat;lon;timestamp;pressure;altitude;pressure_sealevel;temperature;humidity
74868;BME280;63419;42.262;12.210;2023-05-29T00:01:27;97112.28;;;21.24;100.00
74868;BME280;63419;42.262;12.210;2023-05-29T00:03:55;97113.00;;;21.18;100.00
74868;BME280;63419;42.262;12.210;2023-05-29T00:06:24;97117.66;;;21.08;100.00
74868;BME280;63419;42.262;12.210;2023-05-29T00:08:51;97116.06;;;20.99;100.00
74868;BME280;63419;42.262;12.210;2023-05-29T00:11:19;97109.97;;;21.06;100.00
74868;BME280;63419;42.262;12.210;2023-05-29T00:13:47;97108.25;;;21.14;100.00
74868;BME280;63419;42.262;12.210;2023-05-29T00:16:14;97111.25;;;21.10;100.00
74868;BME280;63419;42.262;12.210;2023-05-29T00:18:42;97109.63;;;21.09;100.00
74868;BME280;63419;42.262;12.210;2023-05-29T00:21:13;97116.13;;;20.90;100.00
74868;BME280;63419;42.262;12.210;2023-05-29T00:23:41;97107.16;;;20.85;100.00
74868;BME280;63419;42.262;12.210;2023-05-29T00:26:11;97109.38;;;20.57;100.00
74868;BME280;63419;42.262;12.210;2023-05-29T00:28:39;97107.34;;;19.06;100.00
74868;BME280;63419;42.262;12.210;2023-05-29T00:31:07;97097.16;;;20.01;100.00
74868;BME280;63419;42.262;12.210;2023-05-29T00:33:34;97098.91;;;20.17;100.00
74868;BME280;63419;42.262;12.210;2023-05-29T00:36:03;97094.53;;;20.09;100.00
74868;BME280;63419;42.262;12.210;2023-05-29T00:38:34;97090.25;;;20.16;100.00
74868;BME280;63419;42.262;12.210;2023-05-29T00:41:01;97095.38;;;20.41;100.00
74868;BME280;63419;42.262;12.210;2023-05-29T00:43:29;97105.25;;;20.70;100.00
74868;BME280;63419;42.262;12.210;2023-05-29T00:45:57;97097.56;;;20.69;100.00
74868;BME280;63419;42.262;12.210;2023-05-29T00:48:26;97092.28;;;19.57;100.00
74868;BME280;63419;42.262;12.210;2023-05-29T00:50:54;97095.22;;;19.62;100.00
74868;BME280;63419;42.262;12.210;2023-05-29T00:53:23;97091.00;;;19.61;100.00
74868;BME280;63419;42.262;12.210;2023-05-29T00:55:52;97092.16;;;19.26;100.00
74868;BME280;63419;42.262;12.210;2023-05-29T00:58:20;97095.03;;;18.39;100.00
74868;BME280;63419;42.262;12.210;2023-05-29T01:00:49;97087.31;;;18.80;100.00
74868;BME280;63419;42.262;12.210;2023-05-29T01:03:18;97092.84;;;18.69;100.00
74868;BME280;63419;42.262;12.210;2023-05-29T01:05:46;97082.81;;;19.56;100.00
74868;BME280;63419;42.262;12.210;2023-05-29T01:08:14;97081.84;;;19.73;100.00
74868;BME280;63419;42.262;12.210;2023-05-29T01:10:41;97074.94;;;19.72;100.00
74868;BME280;63419;42.262;12.210;2023-05-29T01:13:22;97071.50;;;19.64;100.00
74868;BME280;63419;42.262;12.210;2023-05-29T01:16:13;97075.59;;;19.83;100.00
74868;BME280;63419;42.262;12.210;2023-05-29T01:19:25;97075.50;;;20.15;100.00
74868;BME280;63419;42.262;12.210;2023-05-29T01:22:12;97072.16;;;20.30;100.00
74868;BME280;63419;42.262;12.210;2023-05-29T01:24:54;97074.47;;;20.25;100.00
74868;BME280;63419;42.262;12.210;2023-05-29T01:27:27;97085.63;;;18.12;100.00
74868;BME280;63419;42.262;12.210;2023-05-29T01:29:58;97083.91;;;18.37;100.00
74868;BME280;63419;42.262;12.210;2023-05-29T01:32:29;97080.69;;;19.51;100.00
74868;BME280;63419;42.262;12.210;2023-05-29T01:34:57;97076.63;;;20.21;100.00
74868;BME280;63419;42.262;12.210;2023-05-29T01:37:24;97086.97;;;20.14;100.00
74868;BME280;63419;42.262;12.210;2023-05-29T01:39:52;97081.84;;;20.69;100.00
74868;BME280;63419;42.262;12.210;2023-05-29T01:42:21;97083.56;;;20.45;100.00
74868;BME280;63419;42.262;12.210;2023-05-29T01:44:49;97083.41;;;20.07;100.00
74868;BME280;63419;42.262;12.210;2023-05-29T01:47:17;97082.75;;;19.97;100.00
74868;BME280;63419;42.262;12.210;2023-05-29T01:49:49;97081.97;;;19.96;100.00
74868;BME280;63419;42.262;12.210;2023-05-29T01:52:18;97084.69;;;20.11;100.00
74868;BME280;63419;42.262;12.210;2023-05-29T01:54:46;97085.63;;;20.19;100.00
74868;BME280;63419;42.262;12.210;2023-05-29T01:57:14;97072.72;;;20.09;100.00
74868;BME280;63419;42.262;12.210;2023-05-29T01:59:45;97082.66;;;18.06;100.00
74868;BME280;63419;42.262;12.210;2023-05-29T02:02:13;97090.16;;;17.57;100.00
74868;BME280;63419;42.262;12.210;2023-05-29T02:04:42;97083.88;;;18.79;100.00
74868;BME280;63419;42.262;12.210;2023-05-29T02:07:10;97090.84;;;18.54;100.00
74868;BME280;63419;42.262;12.210;2023-05-29T02:09:39;97080.81;;;18.92;100.00
74868;BME280;63419;42.262;12.210;2023-05-29T02:12:07;97063.81;;;19.70;100.00
74868;BME280;63419;42.262;12.210;2023-05-29T02:14:34;97077.22;;;19.92;100.00
74868;BME280;63419;42.262;12.210;2023-05-29T02:17:02;97074.28;;;19.87;100.00
74868;BME280;63419;42.262;12.210;2023-05-29T02:19:29;97083.63;;;19.07;100.00
74868;BME280;63419;42.262;12.210;2023-05-29T02:21:57;97086.63;;;18.61;100.00
74868;BME280;63419;42.262;12.210;2023-05-29T02:24:24;97077.25;;;19.43;100.00
74868;BME280;63419;42.262;12.210;2023-05-29T02:26:52;97079.75;;;18.52;100.00
74868;BME280;63419;42.262;12.210;2023-05-29T02:29:20;97075.78;;;19.15;100.00
74868;BME280;63419;42.262;12.210;2023-05-29T02:31:47;97071.69;;;19.54;100.00
74868;BME280;63419;42.262;12.210;2023-05-29T02:34:15;97067.75;;;19.66;100.00
74868;BME280;63419;42.262;12.210;2023-05-29T02:36:42;97065.81;;;19.44;100.00
74868;BME280;63419;42.262;12.210;2023-05-29T02:39:10;97061.91;;;19.39;100.00
74868;BME280;63419;42.262;12.210;2023-05-29T02:41:37;97058.78;;;19.28;100.00
74868;BME280;63419;42.262;12.210;2023-05-29T02:44:04;97052.00;;;19.99;100.00
74868;BME280;63419;42.262;12.210;2023-05-29T02:46:32;97053.81;;;19.90;100.00
74868;BME280;63419;42.262;12.210;2023-05-29T02:49:00;97050.94;;;20.16;100.00
74868;BME280;63419;42.262;12.210;2023-05-29T02:51:27;97066.47;;;20.58;100.00
74868;BME280;63419;42.262;12.210;2023-05-29T02:53:55;97072.75;;;20.48;100.00
74868;BME280;63419;42.262;12.210;2023-05-29T02:56:22;97081.19;;;20.59;100.00
74868;BME280;63419;42.262;12.210;2023-05-29T02:58:53;97083.19;;;20.65;100.00
74868;BME280;63419;42.262;12.210;2023-05-29T03:01:20;97085.78;;;20.25;100.00
74868;BME280;63419;42.262;12.210;2023-05-29T03:03:48;97084.53;;;20.05;100.00
74868;BME280;63419;42.262;12.210;2023-05-29T03:06:15;97080.47;;;20.42;100.00
74868;BME280;63419;42.262;12.210;2023-05-29T03:08:44;97081.03;;;20.29;100.00
74868;BME280;63419;42.262;12.210;2023-05-29T03:11:14;97074.22;;;17.86;100.00
74868;BME280;63419;42.262;12.210;2023-05-29T03:13:42;97021.44;;;16.05;100.00
74868;BME280;63419;42.262;12.210;2023-05-29T03:16:09;97039.59;;;16.14;100.00
74868;BME280;63419;42.262;12.210;2023-05-29T03:18:37;97048.63;;;16.66;100.00
74868;BME280;63419;42.262;12.210;2023-05-29T03:21:04;97051.13;;;16.85;100.00
74868;BME280;63419;42.262;12.210;2023-05-29T03:23:32;97049.97;;;17.42;100.00
74868;BME280;63419;42.262;12.210;2023-05-29T03:25:59;97042.09;;;18.29;100.00
74868;BME280;63419;42.262;12.210;2023-05-29T03:28:27;97082.31;;;18.44;100.00
74868;BME280;63419;42.262;12.210;2023-05-29T03:30:54;97088.84;;;18.40;100.00
74868;BME280;63419;42.262;12.210;2023-05-29T03:33:22;97091.22;;;18.25;100.00
74868;BME280;63419;42.262;12.210;2023-05-29T03:35:49;97081.41;;;18.70;100.00
74868;BME280;63419;42.262;12.210;2023-05-29T03:38:17;97075.16;;;18.54;100.00
74868;BME280;63419;42.262;12.210;2023-05-29T03:40:44;97073.00;;;19.09;100.00
74868;BME280;63419;42.262;12.210;2023-05-29T03:43:29;97082.25;;;18.27;100.00
74868;BME280;63419;42.262;12.210;2023-05-29T03:45:57;97087.81;;;17.28;100.00
74868;BME280;63419;42.262;12.210;2023-05-29T03:48:24;97095.88;;;17.61;100.00
74868;BME280;63419;42.262;12.210;2023-05-29T03:50:51;97077.16;;;18.18;100.00
74868;BME280;63419;42.262;12.210;2023-05-29T03:53:19;97078.75;;;18.45;100.00
74868;BME280;63419;42.262;12.210;2023-05-29T03:55:46;97077.50;;;18.23;100.00
74868;BME280;63419;42.262;12.210;2023-05-29T03:58:14;97086.53;;;17.76;100.00
74868;BME280;63419;42.262;12.210;2023-05-29T04:00:42;97089.34;;;17.83;100.00
74868;BME280;63419;42.262;12.210;2023-05-29T04:03:10;97073.00;;;19.09;100.00
74868;BME280;63419;42.262;12.210;2023-05-29T04:05:38;97056.91;;;20.02;100.00
74868;BME280;63419;42.262;12.210;2023-05-29T04:08:06;97059.94;;;20.14;100.00
74868;BME280;63419;42.262;12.210;2023-05-29T04:10:42;97061.44;;;20.08;100.00
74868;BME280;63419;42.262;12.210;2023-05-29T04:13:10;97062.84;;;19.88;100.00
74868;BME280;63419;42.262;12.210;2023-05-29T04:15:38;97063.25;;;20.08;100.00
74868;BME280;63419;42.262;12.210;2023-05-29T04:18:05;97058.50;;;20.11;100.00
74868;BME280;63419;42.262;12.210;2023-05-29T04:20:32;97058.13;;;20.23;100.00
74868;BME280;63419;42.262;12.210;2023-05-29T04:23:00;97064.28;;;20.38;100.00
74868;BME280;63419;42.262;12.210;2023-05-29T04:25:27;97064.91;;;20.48;100.00
74868;BME280;63419;42.262;12.210;2023-05-29T04:27:55;97074.59;;;20.00;100.00
74868;BME280;63419;42.262;12.210;2023-05-29T04:30:22;97083.56;;;17.71;100.00
74868;BME280;63419;42.262;12.210;2023-05-29T04:32:50;97101.25;;;16.97;100.00
74868;BME280;63419;42.262;12.210;2023-05-29T04:35:19;97048.03;;;17.70;100.00
74868;BME280;63419;42.262;12.210;2023-05-29T04:37:47;97087.91;;;19.16;100.00
74868;BME280;63419;42.262;12.210;2023-05-29T04:40:14;97075.00;;;20.12;100.00
74868;BME280;63419;42.262;12.210;2023-05-29T04:42:45;97067.81;;;20.53;100.00
74868;BME280;63419;42.262;12.210;2023-05-29T04:45:15;97071.84;;;20.96;100.00
74868;BME280;63419;42.262;12.210;2023-05-29T04:47:43;97062.06;;;21.13;100.00
74868;BME280;63419;42.262;12.210;2023-05-29T04:50:13;97060.88;;;20.69;100.00
74868;BME280;63419;42.262;12.210;2023-05-29T04:52:40;97088.06;;;18.13;100.00
74868;BME280;63419;42.262;12.210;2023-05-29T04:55:09;97085.56;;;18.03;100.00
74868;BME280;63419;42.262;12.210;2023-05-29T04:57:39;97102.31;;;17.93;100.00
74868;BME280;63419;42.262;12.210;2023-05-29T05:00:07;97096.47;;;18.76;100.00
74868;BME280;63419;42.262;12.210;2023-05-29T05:02:42;97081.81;;;19.82;100.00
74868;BME280;63419;42.262;12.210;2023-05-29T05:05:15;97075.72;;;20.37;100.00
74868;BME280;63419;42.262;12.210;2023-05-29T05:07:43;97072.16;;;20.69;100.00
74868;BME280;63419;42.262;12.210;2023-05-29T05:10:10;97070.22;;;21.18;100.00
74868;BME280;63419;42.262;12.210;2023-05-29T05:12:41;97066.16;;;21.53;100.00
74868;BME280;63419;42.262;12.210;2023-05-29T05:15:09;97071.94;;;20.79;100.00
74868;BME280;63419;42.262;12.210;2023-05-29T05:17:40;97077.91;;;19.12;100.00
74868;BME280;63419;42.262;12.210;2023-05-29T05:20:07;97080.19;;;18.90;100.00
74868;BME280;63419;42.262;12.210;2023-05-29T05:22:35;97060.25;;;20.19;100.00
74868;BME280;63419;42.262;12.210;2023-05-29T05:25:04;97050.63;;;21.28;100.00
74868;BME280;63419;42.262;12.210;2023-05-29T05:27:33;97050.56;;;21.75;100.00
74868;BME280;63419;42.262;12.210;2023-05-29T05:30:03;97064.84;;;21.11;100.00
74868;BME280;63419;42.262;12.210;2023-05-29T05:32:34;97061.66;;;21.62;100.00
74868;BME280;63419;42.262;12.210;2023-05-29T05:35:09;97061.91;;;21.52;100.00
74868;BME280;63419;42.262;12.210;2023-05-29T05:37:38;97070.81;;;20.42;100.00
74868;BME280;63419;42.262;12.210;2023-05-29T05:40:07;97057.97;;;19.44;100.00
74868;BME280;63419;42.262;12.210;2023-05-29T05:42:35;97069.09;;;19.13;100.00
74868;BME280;63419;42.262;12.210;2023-05-29T05:45:03;97068.75;;;19.49;100.00
74868;BME280;63419;42.262;12.210;2023-05-29T05:47:32;97057.19;;;20.78;100.00
74868;BME280;63419;42.262;12.210;2023-05-29T05:50:00;97051.44;;;21.29;100.00
74868;BME280;63419;42.262;12.210;2023-05-29T05:52:28;97042.28;;;22.37;100.00
74868;BME280;63419;42.262;12.210;2023-05-29T05:54:58;97046.31;;;22.55;100.00
74868;BME280;63419;42.262;12.210;2023-05-29T05:57:26;97055.50;;;22.44;100.00
74868;BME280;63419;42.262;12.210;2023-05-29T05:59:54;97054.97;;;22.70;100.00
74868;BME280;63419;42.262;12.210;2023-05-29T06:02:22;97062.16;;;22.98;100.00
74868;BME280;63419;42.262;12.210;2023-05-29T06:04:50;97062.38;;;23.18;100.00
74868;BME280;63419;42.262;12.210;2023-05-29T06:07:20;97058.16;;;23.24;100.00
74868;BME280;63419;42.262;12.210;2023-05-29T06:09:48;97065.69;;;23.27;100.00
74868;BME280;63419;42.262;12.210;2023-05-29T06:12:15;97077.09;;;23.12;100.00
74868;BME280;63419;42.262;12.210;2023-05-29T06:14:43;97075.03;;;23.57;100.00
74868;BME280;63419;42.262;12.210;2023-05-29T06:17:10;97084.63;;;22.42;100.00
74868;BME280;63419;42.262;12.210;2023-05-29T06:19:38;97081.53;;;23.62;100.00
74868;BME280;63419;42.262;12.210;2023-05-29T06:22:06;97076.13;;;23.70;100.00
74868;BME280;63419;42.262;12.210;2023-05-29T06:24:33;97070.03;;;23.91;100.00
74868;BME280;63419;42.262;12.210;2023-05-29T06:27:00;97068.09;;;24.13;100.00
74868;BME280;63419;42.262;12.210;2023-05-29T06:29:28;97067.16;;;24.27;100.00
74868;BME280;63419;42.262;12.210;2023-05-29T06:31:56;97080.75;;;23.89;100.00
74868;BME280;63419;42.262;12.210;2023-05-29T06:34:23;97061.28;;;23.84;100.00
74868;BME280;63419;42.262;12.210;2023-05-29T06:36:51;97069.63;;;24.36;100.00
74868;BME280;63419;42.262;12.210;2023-05-29T06:39:19;97070.63;;;24.83;100.00
74868;BME280;63419;42.262;12.210;2023-05-29T06:41:47;97071.78;;;24.60;100.00
74868;BME280;63419;42.262;12.210;2023-05-29T06:44:15;97060.94;;;25.03;100.00
74868;BME280;63419;42.262;12.210;2023-05-29T06:46:42;97068.66;;;24.43;100.00
74868;BME280;63419;42.262;12.210;2023-05-29T06:49:09;97066.81;;;24.92;100.00
74868;BME280;63419;42.262;12.210;2023-05-29T06:51:37;97074.66;;;24.65;100.00
74868;BME280;63419;42.262;12.210;2023-05-29T06:54:04;97079.34;;;24.28;100.00
74868;BME280;63419;42.262;12.210;2023-05-29T06:56:31;97081.53;;;24.66;100.00
74868;BME280;63419;42.262;12.210;2023-05-29T06:58:59;97076.41;;;25.46;100.00
74868;BME280;63419;42.262;12.210;2023-05-29T07:01:26;97086.19;;;24.58;100.00
74868;BME280;63419;42.262;12.210;2023-05-29T07:03:54;97084.94;;;25.49;100.00
74868;BME280;63419;42.262;12.210;2023-05-29T07:06:22;97084.50;;;25.92;100.00
74868;BME280;63419;42.262;12.210;2023-05-29T07:08:50;97089.34;;;25.15;100.00
74868;BME280;63419;42.262;12.210;2023-05-29T07:11:18;97090.22;;;25.55;100.00
74868;BME280;63419;42.262;12.210;2023-05-29T07:13:45;97085.53;;;25.97;100.00
74868;BME280;63419;42.262;12.210;2023-05-29T07:16:13;97088.59;;;26.01;100.00
74868;BME280;63419;42.262;12.210;2023-05-29T07:18:51;97081.47;;;26.08;100.00
74868;BME280;63419;42.262;12.210;2023-05-29T07:21:19;97090.38;;;26.20;100.00
74868;BME280;63419;42.262;12.210;2023-05-29T07:23:47;97088.47;;;26.41;100.00
74868;BME280;63419;42.262;12.210;2023-05-29T07:26:15;97090.84;;;25.64;100.00
74868;BME280;63419;42.262;12.210;2023-05-29T07:28:43;97090.63;;;25.99;100.00
74868;BME280;63419;42.262;12.210;2023-05-29T07:31:10;97072.09;;;26.57;100.00
74868;BME280;63419;42.262;12.210;2023-05-29T07:33:40;97071.00;;;26.78;100.00
74868;BME280;63419;42.262;12.210;2023-05-29T07:36:08;97067.69;;;26.90;100.00
74868;BME280;63419;42.262;12.210;2023-05-29T07:38:35;97068.88;;;27.01;100.00
74868;BME280;63419;42.262;12.210;2023-05-29T07:41:03;97070.16;;;27.16;100.00
74868;BME280;63419;42.262;12.210;2023-05-29T07:43:30;97068.00;;;27.07;100.00
74868;BME280;63419;42.262;12.210;2023-05-29T07:45:58;97069.47;;;27.03;100.00
74868;BME280;63419;42.262;12.210;2023-05-29T07:48:25;97068.38;;;27.10;100.00
74868;BME280;63419;42.262;12.210;2023-05-29T07:50:53;97074.16;;;27.32;100.00
74868;BME280;63419;42.262;12.210;2023-05-29T07:53:20;97064.81;;;27.23;100.00
74868;BME280;63419;42.262;12.210;2023-05-29T07:55:48;97076.63;;;26.50;100.00
74868;BME280;63419;42.262;12.210;2023-05-29T07:58:15;97076.50;;;26.84;100.00
74868;BME280;63419;42.262;12.210;2023-05-29T08:00:44;97079.06;;;26.97;100.00
74868;BME280;63419;42.262;12.210;2023-05-29T08:03:12;97065.50;;;27.69;100.00
74868;BME280;63419;42.262;12.210;2023-05-29T08:05:40;97068.06;;;28.19;100.00
74868;BME280;63419;42.262;12.210;2023-05-29T08:08:07;97073.50;;;27.62;100.00
74868;BME280;63419;42.262;12.210;2023-05-29T08:10:35;97077.03;;;27.31;100.00
74868;BME280;63419;42.262;12.210;2023-05-29T08:13:02;97074.19;;;27.76;100.00
74868;BME280;63419;42.262;12.210;2023-05-29T08:15:30;97064.16;;;28.40;100.00
74868;BME280;63419;42.262;12.210;2023-05-29T08:17:58;97070.19;;;28.10;100.00
74868;BME280;63419;42.262;12.210;2023-05-29T08:20:26;97072.13;;;28.22;100.00
74868;BME280;63419;42.262;12.210;2023-05-29T08:22:53;97067.69;;;28.16;100.00
74868;BME280;63419;42.262;12.210;2023-05-29T08:25:21;97073.75;;;28.04;100.00
74868;BME280;63419;42.262;12.210;2023-05-29T08:27:49;97062.66;;;28.93;100.00
74868;BME280;63419;42.262;12.210;2023-05-29T08:30:16;97069.44;;;28.77;100.00
74868;BME280;63419;42.262;12.210;2023-05-29T08:32:45;97072.56;;;29.16;100.00
74868;BME280;63419;42.262;12.210;2023-05-29T08:35:13;97067.88;;;29.42;100.00
74868;BME280;63419;42.262;12.210;2023-05-29T08:37:44;97068.31;;;29.39;100.00
74868;BME280;63419;42.262;12.210;2023-05-29T08:40:12;97081.09;;;27.77;100.00
74868;BME280;63419;42.262;12.210;2023-05-29T08:42:47;97067.78;;;28.76;100.00
74868;BME280;63419;42.262;12.210;2023-05-29T08:45:15;97072.84;;;29.08;100.00
74868;BME280;63419;42.262;12.210;2023-05-29T08:47:44;97077.13;;;28.48;100.00
74868;BME280;63419;42.262;12.210;2023-05-29T08:50:15;97065.66;;;29.62;100.00
74868;BME280;63419;42.262;12.210;2023-05-29T08:52:44;97069.94;;;29.52;100.00
74868;BME280;63419;42.262;12.210;2023-05-29T08:55:12;97067.13;;;29.77;100.00
74868;BME280;63419;42.262;12.210;2023-05-29T08:57:41;97068.50;;;29.91;100.00
74868;BME280;63419;42.262;12.210;2023-05-29T09:00:12;97068.78;;;29.36;100.00
74868;BME280;63419;42.262;12.210;2023-05-29T09:02:40;97066.59;;;29.56;100.00
74868;BME280;63419;42.262;12.210;2023-05-29T09:05:08;97070.72;;;29.29;100.00
74868;BME280;63419;42.262;12.210;2023-05-29T09:07:38;97066.28;;;29.76;100.00
74868;BME280;63419;42.262;12.210;2023-05-29T09:10:09;97064.81;;;30.45;100.00
74868;BME280;63419;42.262;12.210;2023-05-29T09:12:37;97067.66;;;30.03;100.00
74868;BME280;63419;42.262;12.210;2023-05-29T09:15:20;97079.88;;;29.02;100.00
74868;BME280;63419;42.262;12.210;2023-05-29T09:17:57;97062.44;;;30.60;100.00
74868;BME280;63419;42.262;12.210;2023-05-29T09:20:25;97060.91;;;31.56;100.00
74868;BME280;63419;42.262;12.210;2023-05-29T09:23:09;97069.09;;;31.03;100.00
74868;BME280;63419;42.262;12.210;2023-05-29T09:25:42;97064.63;;;31.38;100.00
74868;BME280;63419;42.262;12.210;2023-05-29T09:28:10;97064.41;;;31.78;100.00
74868;BME280;63419;42.262;12.210;2023-05-29T09:30:45;97066.25;;;32.34;100.00
74868;BME280;63419;42.262;12.210;2023-05-29T09:33:16;97071.13;;;31.30;100.00
74868;BME280;63419;42.262;12.210;2023-05-29T09:35:47;97063.41;;;32.01;100.00
74868;BME280;63419;42.262;12.210;2023-05-29T09:38:19;97068.63;;;31.40;100.00
74868;BME280;63419;42.262;12.210;2023-05-29T09:41:10;97073.44;;;29.10;100.00
74868;BME280;63419;42.262;12.210;2023-05-29T09:43:39;97085.16;;;28.60;100.00
74868;BME280;63419;42.262;12.210;2023-05-29T09:46:15;97087.88;;;27.48;100.00
74868;BME280;63419;42.262;12.210;2023-05-29T09:48:44;97097.66;;;26.84;100.00
74868;BME280;63419;42.262;12.210;2023-05-29T09:51:23;97073.53;;;30.16;100.00
74868;BME280;63419;42.262;12.210;2023-05-29T09:53:53;97083.91;;;29.59;100.00
74868;BME280;63419;42.262;12.210;2023-05-29T09:56:23;97090.03;;;27.83;100.00
74868;BME280;63419;42.262;12.210;2023-05-29T09:58:56;97071.38;;;30.54;100.00
74868;BME280;63419;42.262;12.210;2023-05-29T10:01:23;97057.91;;;32.52;100.00
74868;BME280;63419;42.262;12.210;2023-05-29T10:03:53;97077.59;;;29.95;100.00
74868;BME280;63419;42.262;12.210;2023-05-29T10:06:21;97053.25;;;32.42;100.00
74868;BME280;63419;42.262;12.210;2023-05-29T10:08:52;97090.50;;;27.98;100.00
74868;BME280;63419;42.262;12.210;2023-05-29T10:11:24;97080.16;;;26.83;100.00
74868;BME280;63419;42.262;12.210;2023-05-29T10:13:57;97088.13;;;26.17;100.00
74868;BME280;63419;42.262;12.210;2023-05-29T10:16:25;97073.06;;;27.65;100.00
74868;BME280;63419;42.262;12.210;2023-05-29T10:18:59;97061.97;;;28.98;100.00
74868;BME280;63419;42.262;12.210;2023-05-29T10:21:28;97057.25;;;29.00;100.00
74868;BME280;63419;42.262;12.210;2023-05-29T10:23:57;97039.41;;;32.45;100.00
74868;BME280;63419;42.262;12.210;2023-05-29T10:26:26;97063.81;;;29.28;100.00
74868;BME280;63419;42.262;12.210;2023-05-29T10:29:08;97063.59;;;29.53;100.00
74868;BME280;63419;42.262;12.210;2023-05-29T10:32:16;97065.22;;;29.89;100.00
74868;BME280;63419;42.262;12.210;2023-05-29T10:38:12;97047.13;;;33.99;100.00
74868;BME280;63419;42.262;12.210;2023-05-29T10:40:41;97033.31;;;35.26;100.00
74868;BME280;63419;42.262;12.210;2023-05-29T10:43:09;97044.50;;;32.96;100.00
74868;BME280;63419;42.262;12.210;2023-05-29T10:53:18;97059.22;;;32.28;100.00
74868;BME280;63419;42.262;12.210;2023-05-29T10:55:51;97083.94;;;26.62;100.00
74868;BME280;63419;42.262;12.210;2023-05-29T10:58:21;97070.94;;;28.18;100.00
74868;BME280;63419;42.262;12.210;2023-05-29T11:00:52;97065.53;;;29.34;100.00
74868;BME280;63419;42.262;12.210;2023-05-29T11:03:32;97067.25;;;29.16;100.00
74868;BME280;63419;42.262;12.210;2023-05-29T11:06:07;97058.56;;;30.39;100.00
74868;BME280;63419;42.262;12.210;2023-05-29T11:08:47;97073.47;;;27.87;100.00
74868;BME280;63419;42.262;12.210;2023-05-29T11:15:18;97073.69;;;27.86;100.00
74868;BME280;63419;42.262;12.210;2023-05-29T11:17:48;97087.63;;;26.47;100.00
74868;BME280;63419;42.262;12.210;2023-05-29T11:20:36;97083.16;;;26.41;100.00
74868;BME280;63419;42.262;12.210;2023-05-29T11:23:06;97090.41;;;25.27;100.00
74868;BME280;63419;42.262;12.210;2023-05-29T11:25:40;97084.91;;;25.15;100.00
74868;BME280;63419;42.262;12.210;2023-05-29T11:28:08;97082.53;;;27.29;100.00
74868;BME280;63419;42.262;12.210;2023-05-29T11:30:46;97091.44;;;25.79;100.00
74868;BME280;63419;42.262;12.210;2023-05-29T11:33:26;97079.31;;;26.44;100.00
74868;BME280;63419;42.262;12.210;2023-05-29T11:35:57;97075.75;;;25.84;100.00
74868;BME280;63419;42.262;12.210;2023-05-29T11:38:27;97059.75;;;27.47;100.00
74868;BME280;63419;42.262;12.210;2023-05-29T11:40:55;97056.25;;;27.97;100.00
74868;BME280;63419;42.262;12.210;2023-05-29T11:43:25;97059.06;;;28.02;100.00
74868;BME280;63419;42.262;12.210;2023-05-29T11:45:53;97047.19;;;28.41;100.00
74868;BME280;63419;42.262;12.210;2023-05-29T11:48:21;97044.19;;;28.56;100.00
74868;BME280;63419;42.262;12.210;2023-05-29T11:50:49;97051.47;;;29.03;100.00
74868;BME280;63419;42.262;12.210;2023-05-29T11:53:16;97042.84;;;28.28;100.00
74868;BME280;63419;42.262;12.210;2023-05-29T11:55:43;97047.31;;;27.22;100.00
74868;BME280;63419;42.262;12.210;2023-05-29T11:58:11;97038.47;;;27.60;100.00
74868;BME280;63419;42.262;12.210;2023-05-29T12:00:39;97048.13;;;27.29;100.00
74868;BME280;63419;42.262;12.210;2023-05-29T12:03:11;97036.72;;;28.65;100.00
74868;BME280;63419;42.262;12.210;2023-05-29T12:05:49;97005.97;;;32.38;100.00
74868;BME280;63419;42.262;12.210;2023-05-29T12:08:24;97006.09;;;32.26;100.00
74868;BME280;63419;42.262;12.210;2023-05-29T12:10:53;96978.84;;;37.06;100.00
74868;BME280;63419;42.262;12.210;2023-05-29T12:13:21;97014.06;;;30.34;100.00
74868;BME280;63419;42.262;12.210;2023-05-29T12:15:57;97016.63;;;28.39;100.00
74868;BME280;63419;42.262;12.210;2023-05-29T12:18:26;97010.66;;;30.39;100.00
74868;BME280;63419;42.262;12.210;2023-05-29T12:21:02;96986.66;;;33.50;100.00
74868;BME280;63419;42.262;12.210;2023-05-29T12:23:30;96996.69;;;30.61;100.00
74868;BME280;63419;42.262;12.210;2023-05-29T12:25:58;96989.47;;;31.97;100.00
74868;BME280;63419;42.262;12.210;2023-05-29T12:28:26;96989.53;;;29.80;100.00
74868;BME280;63419;42.262;12.210;2023-05-29T12:30:59;97002.25;;;29.78;100.00
74868;BME280;63419;42.262;12.210;2023-05-29T12:33:31;97001.00;;;28.30;100.00
74868;BME280;63419;42.262;12.210;2023-05-29T12:36:06;96996.16;;;30.18;100.00
74868;BME280;63419;42.262;12.210;2023-05-29T12:38:50;97006.72;;;27.97;100.00
74868;BME280;63419;42.262;12.210;2023-05-29T12:41:31;97013.41;;;27.38;100.00
74868;BME280;63419;42.262;12.210;2023-05-29T12:44:05;96997.66;;;28.96;100.00
74868;BME280;63419;42.262;12.210;2023-05-29T12:46:40;97009.94;;;28.18;100.00
74868;BME280;63419;42.262;12.210;2023-05-29T12:49:18;96991.31;;;31.18;100.00
74868;BME280;63419;42.262;12.210;2023-05-29T12:51:52;97000.97;;;28.00;100.00
74868;BME280;63419;42.262;12.210;2023-05-29T12:54:20;97005.09;;;27.02;100.00
74868;BME280;63419;42.262;12.210;2023-05-29T12:56:48;96992.75;;;26.57;100.00
74868;BME280;63419;42.262;12.210;2023-05-29T12:59:17;96994.50;;;26.38;100.00
74868;BME280;63419;42.262;12.210;2023-05-29T13:01:45;96987.66;;;27.45;100.00
74868;BME280;63419;42.262;12.210;2023-05-29T13:04:12;96995.13;;;26.34;100.00
74868;BME280;63419;42.262;12.210;2023-05-29T13:06:40;96994.06;;;26.41;100.00
74868;BME280;63419;42.262;12.210;2023-05-29T13:09:08;96993.84;;;25.84;100.00